createdAt,value
2023-09-13T00:01:11.050Z,24.55
2023-09-13T00:03:38.213Z,23.90
2023-09-13T00:06:05.389Z,26.35
2023-09-13T00:08:32.349Z,28.67
2023-09-13T00:11:06.038Z,25.52
2023-09-13T00:13:34.337Z,22.30
2023-09-13T00:16:02.230Z,22.03
2023-09-13T00:18:29.454Z,20.60
2023-09-13T00:20:56.775Z,24.20
2023-09-13T00:23:23.698Z,21.23
2023-09-13T00:25:50.646Z,21.08
2023-09-13T00:28:17.999Z,25.90
2023-09-13T00:30:45.292Z,21.20
2023-09-13T00:33:12.504Z,21.38
2023-09-13T00:35:39.722Z,24.38
2023-09-13T00:38:08.189Z,25.55
2023-09-13T00:40:35.192Z,22.30
2023-09-13T00:43:02.508Z,22.42
2023-09-13T00:45:31.356Z,25.10
2023-09-13T00:47:59.121Z,22.17
2023-09-13T00:50:34.319Z,23.05
2023-09-13T00:53:08.204Z,25.07
2023-09-13T00:55:35.421Z,23.48
2023-09-13T00:58:03.563Z,24.10
2023-09-13T01:00:30.692Z,27.40
2023-09-13T01:02:57.878Z,20.73
2023-09-13T01:05:24.927Z,25.80
2023-09-13T01:07:52.709Z,23.42
2023-09-13T01:10:21.244Z,22.95
2023-09-13T01:12:48.353Z,27.20
2023-09-13T01:15:15.611Z,22.10
2023-09-13T01:18:23.722Z,28.27
2023-09-13T01:21:12.469Z,24.10
2023-09-13T01:24:02.382Z,21.23
2023-09-13T01:26:55.035Z,24.02
2023-09-13T01:29:23.965Z,29.08
2023-09-13T01:31:50.999Z,28.60
2023-09-13T01:34:18.061Z,26.77
2023-09-13T01:36:45.286Z,29.92
2023-09-13T01:39:12.350Z,29.05
2023-09-13T01:41:47.276Z,27.33
2023-09-13T01:44:16.607Z,23.87
2023-09-13T01:46:46.588Z,28.15
2023-09-13T01:49:16.594Z,23.83
2023-09-13T01:51:44.140Z,30.83
2023-09-13T01:54:11.535Z,22.98
2023-09-13T01:56:38.544Z,26.07
2023-09-13T01:59:05.736Z,29.27
2023-09-13T02:01:32.816Z,32.50
2023-09-13T02:03:59.974Z,29.30
2023-09-13T02:06:27.694Z,29.85
2023-09-13T02:08:54.710Z,29.23
2023-09-13T02:11:21.810Z,26.92
2023-09-13T02:13:52.064Z,29.20
2023-09-13T02:16:22.744Z,31.88
2023-09-13T02:18:49.948Z,32.58
2023-09-13T02:21:17.748Z,33.47
2023-09-13T02:23:46.073Z,36.45
2023-09-13T02:26:23.737Z,37.13
2023-09-13T02:28:52.788Z,33.00
2023-09-13T02:31:28.837Z,41.70
2023-09-13T02:33:56.430Z,28.43
2023-09-13T02:36:23.719Z,37.45
2023-09-13T02:38:51.576Z,30.70
2023-09-13T02:41:18.603Z,28.73
2023-09-13T02:43:45.888Z,34.25
2023-09-13T02:46:13.594Z,27.07
2023-09-13T02:48:40.655Z,34.25
2023-09-13T02:51:16.023Z,29.10
2023-09-13T02:53:43.655Z,34.85
2023-09-13T02:56:11.224Z,28.33
2023-09-13T02:58:38.860Z,31.70
2023-09-13T03:01:12.393Z,32.38
2023-09-13T03:03:42.095Z,26.52
2023-09-13T03:06:19.164Z,37.00
2023-09-13T03:08:46.188Z,27.52
2023-09-13T03:11:15.135Z,30.77
2023-09-13T03:13:44.129Z,35.08
2023-09-13T03:16:29.940Z,29.10
2023-09-13T03:18:58.743Z,26.30
2023-09-13T03:21:32.471Z,25.08
2023-09-13T03:23:59.557Z,28.13
2023-09-13T03:26:27.965Z,30.45
2023-09-13T03:28:57.248Z,30.42
2023-09-13T03:31:26.651Z,27.60
2023-09-13T03:33:57.723Z,26.75
2023-09-13T03:36:28.964Z,32.47
2023-09-13T03:38:57.543Z,34.15
2023-09-13T03:41:27.727Z,28.60
2023-09-13T03:43:55.109Z,32.75
2023-09-13T03:46:22.650Z,31.13
2023-09-13T03:48:54.880Z,28.93
2023-09-13T03:51:22.018Z,30.52
2023-09-13T03:53:49.207Z,31.27
2023-09-13T03:56:16.293Z,29.30
2023-09-13T03:58:43.792Z,28.52
2023-09-13T04:01:11.312Z,24.97
2023-09-13T04:03:38.954Z,28.15
2023-09-13T04:06:06.149Z,24.33
2023-09-13T04:08:33.142Z,22.73
2023-09-13T04:11:00.170Z,26.35
2023-09-13T04:13:27.407Z,24.07
2023-09-13T04:15:54.521Z,25.73
2023-09-13T04:18:21.529Z,26.35
2023-09-13T04:20:48.643Z,27.92
2023-09-13T04:23:16.489Z,27.88
2023-09-13T04:25:44.309Z,28.07
2023-09-13T04:28:13.280Z,25.90
2023-09-13T04:30:41.349Z,32.20
2023-09-13T04:33:09.040Z,31.17
2023-09-13T04:35:36.318Z,29.15
2023-09-13T04:38:04.190Z,32.17
2023-09-13T04:40:31.992Z,25.92
2023-09-13T04:43:09.207Z,27.58
2023-09-13T04:45:37.968Z,31.35
2023-09-13T04:48:05.280Z,28.00
2023-09-13T04:50:32.244Z,30.43
2023-09-13T04:52:59.219Z,33.08
2023-09-13T04:55:28.052Z,42.65
2023-09-13T04:57:55.687Z,28.40
2023-09-13T05:00:25.322Z,31.77
2023-09-13T05:02:52.423Z,27.23
2023-09-13T05:05:19.475Z,33.40
2023-09-13T05:07:46.479Z,34.60
2023-09-13T05:10:13.476Z,27.75
2023-09-13T05:12:40.468Z,26.80
2023-09-13T05:15:08.001Z,25.87
2023-09-13T05:17:35.067Z,26.10
2023-09-13T05:20:02.060Z,24.60
2023-09-13T05:22:30.170Z,24.02
2023-09-13T05:24:57.228Z,30.45
2023-09-13T05:27:24.227Z,28.50
2023-09-13T05:29:53.437Z,29.27
2023-09-13T05:32:20.702Z,29.05
2023-09-13T05:34:47.671Z,30.08
2023-09-13T05:37:14.743Z,28.58
2023-09-13T05:39:41.790Z,27.80
2023-09-13T05:42:08.803Z,32.58
2023-09-13T05:44:35.736Z,25.90
2023-09-13T05:47:02.745Z,33.53
2023-09-13T05:49:31.056Z,26.58
2023-09-13T05:51:58.272Z,31.03
2023-09-13T05:54:26.170Z,28.60
2023-09-13T05:56:58.863Z,32.78
2023-09-13T05:59:25.879Z,32.78
2023-09-13T06:01:53.089Z,27.65
2023-09-13T06:04:20.182Z,30.40
2023-09-13T06:06:47.183Z,31.50
2023-09-13T06:09:14.175Z,32.80
2023-09-13T06:11:41.281Z,31.67
2023-09-13T06:14:12.221Z,23.73
2023-09-13T06:16:39.641Z,31.33
2023-09-13T06:19:06.853Z,24.20
2023-09-13T06:21:33.898Z,25.45
2023-09-13T06:24:00.974Z,29.20
2023-09-13T06:26:27.958Z,27.75
2023-09-13T06:28:55.557Z,29.20
2023-09-13T06:31:30.751Z,28.90
2023-09-13T06:34:17.558Z,30.73
2023-09-13T06:36:50.598Z,34.38
2023-09-13T06:39:20.254Z,28.30
2023-09-13T06:41:47.351Z,26.80
2023-09-13T06:44:30.186Z,29.30
2023-09-13T06:47:05.186Z,24.50
2023-09-13T06:49:32.671Z,29.33
2023-09-13T06:52:01.348Z,25.00
2023-09-13T06:54:32.710Z,29.27
2023-09-13T06:57:02.558Z,24.42
2023-09-13T06:59:43.212Z,31.92
2023-09-13T07:02:30.381Z,30.73
2023-09-13T07:07:28.996Z,24.37
2023-09-13T07:09:55.939Z,29.05
2023-09-13T07:12:27.394Z,27.25
2023-09-13T07:14:56.436Z,20.88
2023-09-13T07:17:23.493Z,21.15
2023-09-13T07:19:50.627Z,17.23
2023-09-13T07:22:18.242Z,22.15
2023-09-13T07:24:45.504Z,19.42
2023-09-13T07:27:12.597Z,20.05
2023-09-13T07:29:39.596Z,25.48
2023-09-13T07:32:07.352Z,16.17
2023-09-13T07:34:34.381Z,10.95
2023-09-13T07:37:01.335Z,13.38
2023-09-13T07:39:29.640Z,11.93
2023-09-13T07:41:56.953Z,14.23
2023-09-13T07:44:23.909Z,16.27
2023-09-13T07:46:50.912Z,14.30
2023-09-13T07:49:17.955Z,13.77
2023-09-13T07:51:45.006Z,14.52
2023-09-13T07:54:11.990Z,11.27
2023-09-13T07:56:38.998Z,9.97
2023-09-13T07:59:08.846Z,9.82
2023-09-13T08:01:36.040Z,10.27
2023-09-13T08:04:03.187Z,9.20
2023-09-13T08:06:30.277Z,8.05
2023-09-13T08:09:00.784Z,7.67
2023-09-13T08:11:31.547Z,9.75
2023-09-13T08:13:58.776Z,9.55
2023-09-13T08:16:26.449Z,9.93
2023-09-13T08:18:53.471Z,11.05
2023-09-13T08:21:20.409Z,9.43
2023-09-13T08:23:47.466Z,7.07
2023-09-13T08:26:27.165Z,7.93
2023-09-13T08:28:55.580Z,9.02
2023-09-13T08:31:25.362Z,10.38
2023-09-13T08:33:55.676Z,9.37
2023-09-13T08:36:22.749Z,14.30
2023-09-13T08:38:49.724Z,10.60
2023-09-13T08:41:16.884Z,13.13
2023-09-13T08:43:45.549Z,9.20
2023-09-13T08:46:14.449Z,11.37
2023-09-13T08:48:43.526Z,11.52
2023-09-13T08:51:12.258Z,11.73
2023-09-13T08:53:40.825Z,16.95
2023-09-13T08:56:09.109Z,16.17
2023-09-13T08:58:36.705Z,12.00
2023-09-13T09:01:07.511Z,14.10
2023-09-13T09:03:36.273Z,14.60
2023-09-13T09:06:07.285Z,14.35
2023-09-13T09:08:41.528Z,15.40
2023-09-13T09:11:10.190Z,14.07
2023-09-13T09:13:39.991Z,13.93
2023-09-13T09:16:08.872Z,18.52
2023-09-13T09:18:39.008Z,14.02
2023-09-13T09:21:06.868Z,14.38
2023-09-13T09:23:36.308Z,11.73
2023-09-13T09:26:06.449Z,15.13
2023-09-13T09:28:34.231Z,13.32
2023-09-13T09:31:03.493Z,13.68
2023-09-13T09:33:31.839Z,16.77
2023-09-13T09:36:02.260Z,13.37
2023-09-13T09:38:30.266Z,13.85
2023-09-13T09:40:59.612Z,9.63
2023-09-13T09:43:27.216Z,11.30
2023-09-13T09:45:54.809Z,11.50
2023-09-13T09:48:22.376Z,11.40
2023-09-13T09:50:54.665Z,12.02
2023-09-13T09:53:23.843Z,10.80
2023-09-13T09:55:52.762Z,13.00
2023-09-13T09:58:19.886Z,14.18
2023-09-13T10:00:48.834Z,8.77
2023-09-13T10:03:20.455Z,13.48
2023-09-13T10:05:54.318Z,11.05
2023-09-13T10:08:36.096Z,10.18
2023-09-13T10:11:03.257Z,9.25
2023-09-13T10:13:36.234Z,15.23
2023-09-13T10:16:04.097Z,8.45
2023-09-13T10:18:39.918Z,9.50
2023-09-13T10:21:08.201Z,11.02
2023-09-13T10:23:43.423Z,9.23
2023-09-13T10:26:12.528Z,11.97
2023-09-13T10:28:43.529Z,8.93
2023-09-13T10:31:18.000Z,7.60
2023-09-13T10:33:47.340Z,8.40
2023-09-13T10:36:23.869Z,11.27
2023-09-13T10:39:02.242Z,7.90
2023-09-13T10:41:34.685Z,8.13
2023-09-13T10:44:05.936Z,9.52
2023-09-13T10:46:37.361Z,8.15
2023-09-13T10:49:04.504Z,8.40
2023-09-13T10:51:33.288Z,8.27
2023-09-13T10:54:03.524Z,6.72
2023-09-13T10:56:31.633Z,8.35
2023-09-13T10:59:01.444Z,10.13
2023-09-13T11:01:29.054Z,8.10
2023-09-13T11:03:56.523Z,7.33
2023-09-13T11:06:26.299Z,7.78
2023-09-13T11:08:53.325Z,10.18
2023-09-13T11:11:25.084Z,6.40
2023-09-13T11:13:56.948Z,18.60
2023-09-13T11:16:24.717Z,11.93
2023-09-13T11:18:54.211Z,7.85
2023-09-13T11:21:30.201Z,12.35
2023-09-13T11:24:03.977Z,14.27
2023-09-13T11:26:50.203Z,8.15
2023-09-13T11:29:29.931Z,10.17
2023-09-13T11:32:00.432Z,7.80
2023-09-13T11:34:29.016Z,9.13
2023-09-13T11:36:58.949Z,10.68
2023-09-13T11:39:26.086Z,7.18
2023-09-13T11:41:55.277Z,7.07
2023-09-13T11:44:33.716Z,8.88
2023-09-13T11:47:02.528Z,7.78
2023-09-13T11:52:19.016Z,8.30
2023-09-13T11:57:57.252Z,8.98
2023-09-13T12:00:28.882Z,9.32
2023-09-13T12:02:57.770Z,11.73
2023-09-13T12:05:39.698Z,9.73
2023-09-13T12:08:26.968Z,11.17
2023-09-13T12:11:08.661Z,8.32
2023-09-13T12:14:11.153Z,10.82
2023-09-13T12:16:40.354Z,9.15
2023-09-13T12:19:08.598Z,6.90
2023-09-13T12:21:35.905Z,8.80
2023-09-13T12:24:04.363Z,8.10
2023-09-13T12:26:31.518Z,6.75
2023-09-13T12:28:58.545Z,10.02
2023-09-13T12:31:25.783Z,7.10
2023-09-13T12:33:53.537Z,7.90
2023-09-13T12:36:24.100Z,8.55
2023-09-13T12:38:51.424Z,8.77
2023-09-13T12:41:23.401Z,9.95
2023-09-13T12:43:52.037Z,14.18
2023-09-13T12:46:20.973Z,9.10
2023-09-13T12:48:50.958Z,6.72
2023-09-13T12:51:32.480Z,12.05
2023-09-13T12:54:01.271Z,8.40
2023-09-13T12:56:28.626Z,10.35
2023-09-13T12:58:57.343Z,8.03
2023-09-13T13:01:25.859Z,9.88
2023-09-13T13:04:07.561Z,8.32
2023-09-13T13:06:53.739Z,7.70
2023-09-13T13:09:23.933Z,10.20
2023-09-13T13:11:51.352Z,11.93
2023-09-13T13:14:20.989Z,5.53
2023-09-13T13:17:14.040Z,13.32
2023-09-13T13:22:32.086Z,8.35
2023-09-13T13:24:59.240Z,6.23
2023-09-13T13:27:29.991Z,7.15
2023-09-13T13:29:57.184Z,7.05
2023-09-13T13:32:25.615Z,8.48
2023-09-13T13:34:52.714Z,9.95
2023-09-13T13:37:19.924Z,7.37
2023-09-13T13:39:46.991Z,10.55
2023-09-13T13:42:14.195Z,14.55
2023-09-13T13:44:42.477Z,5.90
2023-09-13T13:47:10.465Z,7.55
2023-09-13T13:49:38.179Z,7.73
2023-09-13T13:52:05.642Z,5.82
2023-09-13T13:54:32.714Z,7.90
2023-09-13T13:57:01.120Z,8.48
2023-09-13T13:59:28.215Z,8.50
2023-09-13T14:01:55.439Z,7.37
2023-09-13T14:04:22.449Z,10.15
2023-09-13T14:06:49.559Z,8.60
2023-09-13T14:09:20.141Z,9.32
2023-09-13T14:11:47.696Z,11.93
2023-09-13T14:14:18.663Z,10.90
2023-09-13T14:16:50.114Z,7.47
2023-09-13T14:19:18.066Z,10.27
2023-09-13T14:21:45.304Z,7.82
2023-09-13T14:24:12.436Z,9.02
2023-09-13T14:26:42.843Z,7.60
2023-09-13T14:29:10.502Z,10.77
2023-09-13T14:31:39.015Z,7.65
2023-09-13T14:34:07.597Z,6.85
2023-09-13T14:36:35.070Z,10.02
2023-09-13T14:39:02.176Z,7.63
2023-09-13T14:41:30.313Z,11.10
2023-09-13T14:43:57.257Z,11.60
2023-09-13T14:46:24.338Z,12.55
2023-09-13T14:48:54.357Z,12.10
2023-09-13T14:51:24.024Z,15.07
2023-09-13T14:53:51.030Z,12.57
2023-09-13T14:56:18.017Z,12.73
2023-09-13T14:58:45.225Z,12.55
2023-09-13T15:01:13.526Z,9.70
2023-09-13T15:03:49.573Z,9.43
2023-09-13T15:06:19.491Z,9.88
2023-09-13T15:08:50.493Z,14.85
2023-09-13T15:11:18.039Z,14.48
2023-09-13T15:13:46.968Z,20.38
2023-09-13T15:16:14.875Z,14.00
2023-09-13T15:18:42.103Z,18.73
2023-09-13T15:21:11.422Z,13.27
2023-09-13T15:23:38.636Z,14.80
2023-09-13T15:26:05.685Z,10.90
2023-09-13T15:28:32.779Z,12.30
2023-09-13T15:30:59.903Z,10.90
2023-09-13T15:33:27.212Z,10.00
2023-09-13T15:35:54.427Z,12.70
2023-09-13T15:38:21.580Z,8.20
2023-09-13T15:40:48.732Z,12.13
2023-09-13T15:43:16.728Z,14.82
2023-09-13T15:45:44.092Z,10.93
2023-09-13T15:48:11.150Z,9.85
2023-09-13T15:50:38.330Z,12.02
2023-09-13T15:53:05.343Z,19.40
2023-09-13T15:55:34.457Z,16.45
2023-09-13T15:58:02.526Z,14.88
2023-09-13T16:00:29.528Z,19.40
2023-09-13T16:02:56.691Z,13.63
2023-09-13T16:05:24.808Z,19.20
2023-09-13T16:07:51.804Z,11.63
2023-09-13T16:10:18.805Z,16.67
2023-09-13T16:12:47.270Z,12.43
2023-09-13T16:15:14.346Z,14.23
2023-09-13T16:17:41.436Z,11.63
2023-09-13T16:20:10.007Z,11.10
2023-09-13T16:22:37.068Z,8.68
2023-09-13T16:25:07.178Z,14.00
2023-09-13T16:27:34.920Z,12.73
2023-09-13T16:30:05.229Z,11.67
2023-09-13T16:32:34.039Z,10.48
2023-09-13T16:35:01.078Z,16.00
2023-09-13T16:37:28.097Z,11.60
2023-09-13T16:39:55.158Z,12.07
2023-09-13T16:43:09.485Z,13.27
2023-09-13T16:45:50.537Z,12.82
2023-09-13T16:48:32.062Z,12.40
2023-09-13T16:51:01.975Z,10.73
2023-09-13T16:53:29.024Z,11.63
2023-09-13T16:55:56.076Z,14.70
2023-09-13T16:58:23.121Z,10.88
2023-09-13T17:00:50.585Z,10.85
2023-09-13T17:03:17.746Z,8.23
2023-09-13T17:05:44.870Z,10.07
2023-09-13T17:08:11.952Z,9.23
2023-09-13T17:10:38.904Z,11.90
2023-09-13T17:13:05.929Z,11.65
2023-09-13T17:15:47.031Z,10.70
2023-09-13T17:18:14.307Z,11.55
2023-09-13T17:20:41.765Z,8.93
2023-09-13T17:23:09.689Z,18.80
2023-09-13T17:25:37.665Z,14.05
2023-09-13T17:28:05.264Z,10.30
2023-09-13T17:30:34.558Z,16.20
2023-09-13T17:33:02.539Z,19.10
2023-09-13T17:35:29.989Z,15.60
2023-09-13T17:38:00.066Z,20.10
2023-09-13T17:40:28.475Z,22.85
2023-09-13T17:42:56.405Z,26.10
2023-09-13T17:45:23.602Z,21.00
2023-09-13T17:47:51.540Z,18.58
2023-09-13T17:50:19.386Z,16.13
2023-09-13T17:52:46.355Z,15.68
2023-09-13T17:55:13.380Z,18.17
2023-09-13T17:57:40.412Z,18.20
2023-09-13T18:00:08.148Z,14.43
2023-09-13T18:02:36.494Z,12.82
2023-09-13T18:05:04.158Z,18.85
2023-09-13T18:07:32.385Z,18.80
2023-09-13T18:09:59.670Z,20.07
2023-09-13T18:12:27.094Z,28.13
2023-09-13T18:14:57.099Z,14.07
2023-09-13T18:17:24.515Z,17.63
2023-09-13T18:19:51.549Z,11.15
2023-09-13T18:22:18.560Z,16.87
2023-09-13T18:24:45.626Z,16.55
2023-09-13T18:27:13.682Z,16.35
2023-09-13T18:29:43.211Z,20.30
2023-09-13T18:32:10.401Z,18.67
2023-09-13T18:34:41.460Z,21.37
2023-09-13T18:37:09.509Z,21.45
2023-09-13T18:39:36.852Z,24.77
2023-09-13T18:42:05.221Z,22.67
2023-09-13T18:44:32.865Z,27.17
2023-09-13T18:46:59.919Z,19.07
2023-09-13T18:49:28.924Z,33.65
2023-09-13T18:51:55.919Z,22.77
2023-09-13T18:54:23.096Z,23.65
2023-09-13T18:56:50.516Z,18.30
2023-09-13T18:59:17.557Z,19.00
2023-09-13T19:01:45.472Z,20.42
2023-09-13T19:04:12.640Z,18.13
2023-09-13T19:06:39.637Z,22.27
2023-09-13T19:09:06.672Z,25.42
2023-09-13T19:11:35.916Z,19.90
2023-09-13T19:14:02.935Z,20.40
2023-09-13T19:16:32.318Z,18.65
2023-09-13T19:19:01.253Z,22.23
2023-09-13T19:21:28.347Z,21.33
2023-09-13T19:23:55.283Z,22.73
2023-09-13T19:26:23.398Z,29.92
2023-09-13T19:28:50.490Z,22.13
2023-09-13T19:31:18.098Z,23.33
2023-09-13T19:33:45.230Z,23.15
2023-09-13T19:36:12.271Z,17.83
2023-09-13T19:38:40.027Z,22.73
2023-09-13T19:41:07.140Z,20.60
2023-09-13T19:43:36.579Z,20.95
2023-09-13T19:46:04.568Z,27.67
2023-09-13T19:48:34.378Z,24.83
2023-09-13T19:51:14.106Z,23.40
2023-09-13T19:53:42.120Z,29.30
2023-09-13T19:56:10.659Z,18.35
2023-09-13T19:58:48.605Z,30.90
2023-09-13T20:01:17.321Z,16.90
2023-09-13T20:03:44.742Z,20.05
2023-09-13T20:06:22.093Z,23.63
2023-09-13T20:08:49.859Z,23.70
2023-09-13T20:11:36.150Z,20.08
2023-09-13T20:14:05.758Z,24.73
2023-09-13T20:16:35.559Z,28.65
2023-09-13T20:19:12.073Z,31.30
2023-09-13T20:21:39.131Z,28.35
2023-09-13T20:24:06.373Z,35.63
2023-09-13T20:26:36.463Z,40.17
2023-09-13T20:29:03.504Z,38.33
2023-09-13T20:31:32.568Z,36.40
2023-09-13T20:33:59.760Z,32.60
2023-09-13T20:36:26.820Z,34.67
2023-09-13T20:38:53.831Z,30.37
2023-09-13T20:41:20.970Z,36.50
2023-09-13T20:43:47.957Z,31.27
2023-09-13T20:46:15.096Z,34.35
2023-09-13T20:48:42.196Z,24.00
2023-09-13T20:51:09.270Z,21.93
2023-09-13T20:53:36.327Z,22.15
2023-09-13T20:56:03.595Z,29.23
2023-09-13T20:58:30.649Z,19.50
2023-09-13T21:00:57.710Z,23.77
2023-09-13T21:03:25.009Z,23.77
2023-09-13T21:05:56.077Z,21.30
2023-09-13T21:08:23.404Z,18.48
2023-09-13T21:10:50.461Z,20.63
2023-09-13T21:13:17.512Z,25.58
2023-09-13T21:15:44.474Z,21.77
2023-09-13T21:18:11.469Z,19.98
2023-09-13T21:20:38.460Z,20.63
2023-09-13T21:23:08.870Z,20.67
2023-09-13T21:25:35.947Z,23.50
2023-09-13T21:28:04.868Z,20.83
2023-09-13T21:30:32.022Z,24.30
2023-09-13T21:32:59.134Z,22.55
2023-09-13T21:35:26.192Z,19.00
2023-09-13T21:37:53.172Z,18.77
2023-09-13T21:40:20.154Z,27.17
2023-09-13T21:42:47.217Z,21.10
2023-09-13T21:45:14.232Z,18.35
2023-09-13T21:47:41.226Z,26.40
2023-09-13T21:50:08.573Z,26.88
2023-09-13T21:52:35.523Z,22.33
2023-09-13T21:55:02.680Z,25.65
2023-09-13T21:57:30.910Z,19.55
2023-09-13T21:59:58.219Z,21.40
2023-09-13T22:02:25.300Z,21.80
2023-09-13T22:04:52.320Z,23.90
2023-09-13T22:07:19.321Z,24.55
2023-09-13T22:09:49.314Z,24.17
2023-09-13T22:12:16.426Z,20.65
2023-09-13T22:14:43.481Z,20.85
2023-09-13T22:17:10.512Z,27.07
2023-09-13T22:19:37.461Z,19.70
2023-09-13T22:22:04.688Z,23.88
2023-09-13T22:24:32.974Z,23.83
2023-09-13T22:27:00.023Z,24.50
2023-09-13T22:29:27.071Z,23.00
2023-09-13T22:31:54.111Z,32.42
2023-09-13T22:34:21.160Z,20.30
2023-09-13T22:36:48.818Z,23.65
2023-09-13T22:39:16.199Z,29.00
2023-09-13T22:41:44.181Z,33.57
2023-09-13T22:44:11.482Z,38.45
2023-09-13T22:46:39.080Z,57.95
2023-09-13T22:49:06.232Z,34.20
2023-09-13T22:51:33.384Z,38.10
2023-09-13T22:54:00.530Z,22.47
2023-09-13T22:56:27.612Z,25.08
2023-09-13T22:58:55.787Z,25.50
2023-09-13T23:01:22.942Z,22.38
2023-09-13T23:03:50.251Z,29.65
2023-09-13T23:06:17.379Z,19.97
2023-09-13T23:08:44.727Z,20.90
2023-09-13T23:11:12.126Z,19.38
2023-09-13T23:13:39.089Z,20.88
2023-09-13T23:16:07.389Z,18.45
2023-09-13T23:18:37.767Z,25.03
2023-09-13T23:21:05.352Z,22.55
2023-09-13T23:23:32.532Z,20.48
2023-09-13T23:26:04.541Z,25.50
2023-09-13T23:28:32.017Z,21.55
2023-09-13T23:31:13.672Z,19.47
2023-09-13T23:33:42.491Z,23.13
2023-09-13T23:36:10.832Z,17.50
2023-09-13T23:38:42.044Z,16.83
2023-09-13T23:41:10.988Z,20.90
2023-09-13T23:43:39.326Z,16.90
2023-09-13T23:46:08.406Z,16.75
2023-09-13T23:48:39.285Z,18.15
2023-09-13T23:51:08.452Z,17.55
2023-09-13T23:53:36.358Z,16.73
2023-09-13T23:56:07.076Z,17.60
2023-09-13T23:58:34.337Z,14.88
